createdAt,value
2022-08-19T00:02:11.714Z,81.93
2022-08-19T00:05:14.190Z,81.81
2022-08-19T00:08:17.295Z,82.09
2022-08-19T00:11:25.600Z,82.04
2022-08-19T00:14:28.648Z,82.12
2022-08-19T00:17:30.214Z,82.15
2022-08-19T00:20:31.931Z,82.24
2022-08-19T00:23:37.139Z,82.17
2022-08-19T00:26:39.604Z,82.20
2022-08-19T00:29:41.452Z,82.33
2022-08-19T00:32:43.107Z,82.57
2022-08-19T00:35:47.586Z,82.54
2022-08-19T00:38:59.584Z,82.59
2022-08-19T00:42:01.613Z,82.46
2022-08-19T00:45:03.672Z,82.69
2022-08-19T00:48:05.538Z,82.60
2022-08-19T00:51:17.181Z,82.92
2022-08-19T00:54:20.875Z,82.99
2022-08-19T00:57:36.407Z,83.30
2022-08-19T01:00:39.072Z,83.50
2022-08-19T01:03:56.683Z,83.60
2022-08-19T01:07:00.655Z,83.54
2022-08-19T01:10:04.545Z,83.62
2022-08-19T01:13:06.692Z,83.87
2022-08-19T01:16:10.260Z,83.83
2022-08-19T01:19:17.945Z,84.06
2022-08-19T01:22:30.194Z,84.27
2022-08-19T01:25:36.719Z,84.51
2022-08-19T01:28:42.363Z,84.61
2022-08-19T01:31:44.050Z,84.67
2022-08-19T01:34:47.887Z,84.85
2022-08-19T01:37:50.803Z,85.04
2022-08-19T01:40:53.828Z,85.19
2022-08-19T01:44:03.225Z,84.88
2022-08-19T01:47:20.686Z,84.98
2022-08-19T01:50:22.406Z,84.85
2022-08-19T01:53:30.532Z,84.85
2022-08-19T01:56:36.739Z,84.96
2022-08-19T01:59:39.843Z,84.86
2022-08-19T02:02:44.186Z,85.10
2022-08-19T02:05:46.745Z,84.87
2022-08-19T02:08:48.988Z,84.56
2022-08-19T02:11:54.471Z,84.62
2022-08-19T02:14:56.386Z,84.73
2022-08-19T02:17:58.423Z,85.04
2022-08-19T02:21:00.283Z,85.17
2022-08-19T02:24:01.944Z,84.77
2022-08-19T02:27:05.855Z,84.66
2022-08-19T02:30:08.951Z,84.69
2022-08-19T02:33:17.106Z,84.88
2022-08-19T02:36:21.239Z,85.05
2022-08-19T02:39:22.899Z,84.97
2022-08-19T02:42:26.460Z,84.87
2022-08-19T02:45:28.113Z,85.35
2022-08-19T02:48:29.917Z,85.75
2022-08-19T02:51:34.969Z,85.82
2022-08-19T02:54:36.768Z,86.01
2022-08-19T02:57:39.788Z,86.14
2022-08-19T03:00:46.458Z,86.53
2022-08-19T03:03:47.993Z,86.84
2022-08-19T03:06:50.325Z,87.32
2022-08-19T03:09:52.394Z,87.69
2022-08-19T03:12:55.433Z,87.88
2022-08-19T03:15:57.403Z,87.96
2022-08-19T03:19:02.413Z,88.27
2022-08-19T03:22:05.563Z,88.38
2022-08-19T03:25:07.656Z,88.59
2022-08-19T03:28:11.048Z,88.83
2022-08-19T03:31:44.253Z,89.14
2022-08-19T03:34:38.021Z,89.26
2022-08-19T03:37:39.929Z,89.16
2022-08-19T03:40:44.171Z,89.44
2022-08-19T03:43:54.013Z,89.33
2022-08-19T03:46:57.380Z,89.74
2022-08-19T03:49:59.106Z,89.65
2022-08-19T03:53:02.135Z,89.78
2022-08-19T03:56:04.021Z,89.61
2022-08-19T03:59:09.265Z,89.69
2022-08-19T04:02:14.491Z,89.79
2022-08-19T04:05:16.397Z,89.86
2022-08-19T04:08:23.398Z,89.71
2022-08-19T04:11:42.750Z,90.00
2022-08-19T04:14:47.687Z,89.88
2022-08-19T04:17:49.368Z,90.13
2022-08-19T04:20:51.206Z,90.54
2022-08-19T04:23:53.476Z,90.41
2022-08-19T04:26:57.451Z,90.45
2022-08-19T04:30:00.961Z,90.41
2022-08-19T04:33:02.731Z,90.62
2022-08-19T04:36:04.783Z,90.47
2022-08-19T04:39:07.753Z,90.70
2022-08-19T04:42:30.646Z,90.95
2022-08-19T04:45:43.703Z,90.98
2022-08-19T04:48:49.175Z,90.89
2022-08-19T04:51:53.437Z,90.95
2022-08-19T04:54:56.451Z,90.94
2022-08-19T04:57:58.227Z,91.16
2022-08-19T05:01:01.999Z,91.26
2022-08-19T05:04:05.672Z,91.06
2022-08-19T05:07:07.746Z,90.86
2022-08-19T05:10:10.163Z,91.06
2022-08-19T05:13:12.111Z,91.13
2022-08-19T05:16:15.967Z,91.07
2022-08-19T05:19:36.214Z,91.18
2022-08-19T05:22:38.410Z,91.36
2022-08-19T05:25:40.691Z,91.47
2022-08-19T05:28:43.400Z,91.54
2022-08-19T05:31:47.245Z,91.72
2022-08-19T05:34:48.782Z,91.86
2022-08-19T05:37:50.466Z,91.83
2022-08-19T05:40:56.776Z,91.83
2022-08-19T05:43:59.832Z,91.72
2022-08-19T05:47:05.697Z,91.78
2022-08-19T05:50:07.781Z,91.72
2022-08-19T05:53:10.071Z,91.83
2022-08-19T05:56:13.569Z,91.83
2022-08-19T05:59:19.213Z,91.72
2022-08-19T06:02:26.544Z,91.65
2022-08-19T06:05:28.183Z,91.49
2022-08-19T06:08:34.522Z,91.16
2022-08-19T06:11:38.040Z,91.14
2022-08-19T06:14:41.721Z,90.72
2022-08-19T06:17:47.759Z,90.67
2022-08-19T06:20:55.850Z,90.39
2022-08-19T06:23:59.198Z,90.72
2022-08-19T06:27:01.630Z,90.69
2022-08-19T06:30:04.333Z,91.02
2022-08-19T06:33:07.542Z,90.75
2022-08-19T06:36:16.676Z,90.36
2022-08-19T06:39:19.984Z,90.25
2022-08-19T06:42:21.766Z,90.02
2022-08-19T06:45:35.378Z,90.14
2022-08-19T06:48:45.706Z,90.03
2022-08-19T06:51:48.942Z,89.84
2022-08-19T06:54:56.361Z,89.73
2022-08-19T06:58:01.301Z,89.50
2022-08-19T07:01:07.106Z,89.02
2022-08-19T07:04:12.653Z,88.93
2022-08-19T07:07:21.073Z,88.97
2022-08-19T07:10:23.366Z,88.75
2022-08-19T07:13:27.633Z,88.50
2022-08-19T07:16:29.779Z,88.52
2022-08-19T07:19:33.348Z,88.09
2022-08-19T07:22:35.308Z,87.80
2022-08-19T07:25:39.013Z,87.55
2022-08-19T07:28:51.293Z,87.11
2022-08-19T07:31:53.909Z,87.15
2022-08-19T07:34:57.520Z,86.52
2022-08-19T07:37:59.288Z,85.68
2022-08-19T07:41:01.265Z,85.28
2022-08-19T07:44:04.914Z,84.86
2022-08-19T07:47:07.869Z,84.05
2022-08-19T07:50:30.987Z,84.11
2022-08-19T07:53:36.685Z,84.13
2022-08-19T07:56:41.392Z,84.04
2022-08-19T07:59:43.153Z,83.35
2022-08-19T08:02:45.334Z,83.24
2022-08-19T08:06:07.805Z,82.97
2022-08-19T08:09:13.381Z,82.87
2022-08-19T08:12:33.492Z,82.56
2022-08-19T08:15:41.382Z,82.72
2022-08-19T08:18:50.610Z,82.33
2022-08-19T08:21:57.504Z,82.36
2022-08-19T08:25:01.536Z,82.10
2022-08-19T08:28:03.714Z,81.52
2022-08-19T08:31:09.397Z,81.24
2022-08-19T08:34:12.364Z,80.83
2022-08-19T08:37:16.005Z,80.56
2022-08-19T08:40:20.504Z,80.66
2022-08-19T08:43:24.465Z,80.01
2022-08-19T08:46:32.452Z,79.51
2022-08-19T08:49:38.255Z,79.07
2022-08-19T08:52:44.127Z,77.93
2022-08-19T08:55:47.914Z,76.77
2022-08-19T08:58:55.681Z,75.74
2022-08-19T09:01:57.434Z,75.23
2022-08-19T09:04:59.259Z,74.90
2022-08-19T09:08:08.421Z,74.66
2022-08-19T09:11:17.220Z,74.74
2022-08-19T09:14:50.857Z,73.97
2022-08-19T09:17:53.350Z,74.33
2022-08-19T09:20:57.193Z,72.61
2022-08-19T09:24:00.519Z,71.66
2022-08-19T09:27:18.168Z,72.36
2022-08-19T09:30:22.739Z,70.73
2022-08-19T09:33:24.423Z,68.88
2022-08-19T09:36:34.451Z,68.29
2022-08-19T09:39:38.204Z,67.81
2022-08-19T09:42:50.118Z,67.53
2022-08-19T09:45:53.524Z,67.86
2022-08-19T09:49:06.479Z,67.95
2022-08-19T09:52:09.598Z,68.21
2022-08-19T09:55:17.402Z,68.47
2022-08-19T09:58:23.393Z,69.00
2022-08-19T10:01:28.739Z,68.42
2022-08-19T10:04:48.919Z,69.02
2022-08-19T10:07:51.283Z,69.29
2022-08-19T10:10:54.630Z,69.55
2022-08-19T10:13:56.393Z,69.29
2022-08-19T10:16:59.365Z,69.29
2022-08-19T10:20:01.129Z,68.49
2022-08-19T10:23:02.946Z,68.69
2022-08-19T10:26:08.419Z,68.16
2022-08-19T10:29:11.062Z,67.91
2022-08-19T10:32:12.862Z,67.40
2022-08-19T10:35:21.152Z,67.03
2022-08-19T10:38:31.276Z,67.69
2022-08-19T10:41:37.201Z,66.80
2022-08-19T10:44:39.340Z,66.78
2022-08-19T10:47:41.124Z,66.90
2022-08-19T10:51:01.665Z,66.93
2022-08-19T10:54:06.877Z,66.01
2022-08-19T10:57:15.839Z,66.23
2022-08-19T11:00:17.921Z,65.92
2022-08-19T11:03:19.815Z,64.34
2022-08-19T11:06:21.977Z,64.15
2022-08-19T11:09:34.471Z,63.44
2022-08-19T11:12:40.349Z,62.42
2022-08-19T11:15:41.954Z,62.70
2022-08-19T11:18:44.916Z,62.39
2022-08-19T11:21:48.109Z,61.44
2022-08-19T11:24:51.128Z,61.43
2022-08-19T11:27:54.353Z,61.50
2022-08-19T11:30:56.058Z,60.62
2022-08-19T11:33:58.199Z,59.38
2022-08-19T11:37:00.673Z,58.56
2022-08-19T11:40:02.941Z,58.17
2022-08-19T11:43:06.019Z,58.60
2022-08-19T11:46:08.707Z,57.81
2022-08-19T11:49:13.843Z,57.27
2022-08-19T11:52:16.645Z,55.94
2022-08-19T11:55:18.366Z,55.94
2022-08-19T11:58:21.602Z,55.33
2022-08-19T12:01:24.455Z,54.86
2022-08-19T12:04:26.187Z,55.10
2022-08-19T12:07:28.008Z,54.65
2022-08-19T12:10:29.751Z,54.82
2022-08-19T12:13:33.089Z,53.71
2022-08-19T12:16:37.737Z,52.89
2022-08-19T12:19:41.597Z,53.21
2022-08-19T12:22:43.933Z,52.75
2022-08-19T12:25:53.072Z,52.87
2022-08-19T12:28:56.573Z,52.21
2022-08-19T12:32:05.287Z,52.78
2022-08-19T12:35:07.822Z,53.24
2022-08-19T12:38:09.692Z,51.68
2022-08-19T12:41:13.498Z,51.58
2022-08-19T12:44:17.920Z,52.33
2022-08-19T12:47:22.199Z,51.77
2022-08-19T12:50:23.902Z,51.27
2022-08-19T12:53:25.988Z,50.94
2022-08-19T12:56:28.584Z,51.36
2022-08-19T12:59:31.958Z,50.38
2022-08-19T13:02:39.084Z,49.31
2022-08-19T13:05:41.654Z,50.21
2022-08-19T13:08:43.399Z,49.99
2022-08-19T13:11:48.483Z,50.32
2022-08-19T13:14:52.022Z,50.50
2022-08-19T13:17:54.831Z,50.28
2022-08-19T13:20:57.647Z,49.90
2022-08-19T13:23:59.633Z,50.19
2022-08-19T13:27:01.800Z,49.46
2022-08-19T13:30:24.923Z,49.44
2022-08-19T13:33:28.021Z,50.24
2022-08-19T13:36:30.139Z,50.36
2022-08-19T13:39:33.530Z,50.32
2022-08-19T13:42:35.321Z,50.47
2022-08-19T13:45:38.732Z,50.33
2022-08-19T13:48:41.840Z,50.09
2022-08-19T13:51:43.975Z,49.11
2022-08-19T13:54:45.755Z,49.61
2022-08-19T13:57:50.965Z,48.38
2022-08-19T14:00:54.419Z,48.82
2022-08-19T14:03:56.544Z,49.29
2022-08-19T14:06:58.549Z,48.68
2022-08-19T14:10:00.405Z,49.09
2022-08-19T14:13:03.067Z,48.40
2022-08-19T14:16:09.791Z,48.26
2022-08-19T14:19:11.575Z,48.17
2022-08-19T14:22:13.382Z,46.42
2022-08-19T14:25:18.655Z,45.95
2022-08-19T14:28:20.548Z,45.99
2022-08-19T14:31:30.978Z,46.95
2022-08-19T14:34:34.725Z,46.39
2022-08-19T14:37:37.252Z,45.64
2022-08-19T14:40:47.955Z,45.66
2022-08-19T14:43:50.923Z,45.53
2022-08-19T14:46:54.563Z,46.39
2022-08-19T14:49:56.434Z,45.96
2022-08-19T14:53:05.325Z,44.89
2022-08-19T14:56:14.050Z,45.06
2022-08-19T14:59:15.676Z,44.62
2022-08-19T15:02:33.798Z,44.59
2022-08-19T15:05:37.947Z,44.81
2022-08-19T15:08:42.030Z,44.53
2022-08-19T15:11:43.681Z,44.96
2022-08-19T15:14:53.001Z,43.85
2022-08-19T15:18:03.509Z,45.64
2022-08-19T15:21:05.796Z,46.04
2022-08-19T15:24:07.626Z,46.31
2022-08-19T15:27:09.318Z,46.69
2022-08-19T15:30:11.686Z,46.80
2022-08-19T15:33:15.416Z,46.54
2022-08-19T15:36:17.503Z,47.00
2022-08-19T15:39:21.602Z,47.05
2022-08-19T15:42:29.973Z,47.57
2022-08-19T15:45:34.957Z,46.84
2022-08-19T15:48:38.498Z,47.43
2022-08-19T15:51:43.113Z,47.62
2022-08-19T15:54:46.101Z,48.01
2022-08-19T15:58:06.521Z,47.87
2022-08-19T16:01:28.321Z,47.14
2022-08-19T16:04:49.878Z,46.74
2022-08-19T16:07:51.872Z,46.28
2022-08-19T16:10:53.625Z,45.62
2022-08-19T16:13:55.231Z,46.10
2022-08-19T16:17:00.359Z,45.66
2022-08-19T16:20:04.020Z,45.49
2022-08-19T16:23:06.611Z,46.13
2022-08-19T16:26:08.664Z,45.80
2022-08-19T16:29:13.349Z,45.10
2022-08-19T16:32:15.165Z,45.59
2022-08-19T16:35:18.931Z,45.44
2022-08-19T16:38:21.904Z,45.90
2022-08-19T16:41:23.602Z,45.41
2022-08-19T16:44:29.717Z,45.72
2022-08-19T16:47:31.651Z,46.23
2022-08-19T16:50:48.613Z,46.10
2022-08-19T16:53:52.986Z,45.97
2022-08-19T16:56:56.111Z,46.52
2022-08-19T16:59:58.037Z,46.96
2022-08-19T17:03:04.777Z,46.57
2022-08-19T17:06:17.837Z,46.81
2022-08-19T17:09:26.102Z,47.09
2022-08-19T17:12:30.661Z,47.08
2022-08-19T17:15:34.022Z,47.35
2022-08-19T17:18:35.817Z,47.36
2022-08-19T17:21:40.946Z,47.63
2022-08-19T17:24:42.872Z,47.69
2022-08-19T17:27:47.805Z,47.29
2022-08-19T17:30:49.698Z,48.32
2022-08-19T17:33:52.194Z,48.03
2022-08-19T17:36:58.892Z,48.31
2022-08-19T17:40:04.305Z,48.55
2022-08-19T17:43:08.001Z,48.67
2022-08-19T17:46:13.352Z,48.63
2022-08-19T17:49:19.952Z,48.73
2022-08-19T17:52:25.202Z,49.11
2022-08-19T17:55:27.421Z,49.14
2022-08-19T17:58:29.364Z,49.53
2022-08-19T18:01:52.713Z,49.49
2022-08-19T18:04:53.603Z,49.63
2022-08-19T18:07:57.419Z,49.57
2022-08-19T18:10:59.051Z,49.79
2022-08-19T18:14:00.653Z,49.89
2022-08-19T18:17:05.952Z,49.99
2022-08-19T18:20:12.154Z,50.16
2022-08-19T18:23:44.377Z,50.40
2022-08-19T18:26:43.418Z,50.61
2022-08-19T18:29:45.175Z,50.64
2022-08-19T18:32:49.892Z,50.88
2022-08-19T18:35:53.157Z,50.96
2022-08-19T18:39:15.252Z,50.97
2022-08-19T18:42:36.750Z,50.98
2022-08-19T18:45:57.398Z,50.88
2022-08-19T18:49:05.254Z,50.84
2022-08-19T18:52:06.991Z,50.90
2022-08-19T18:55:10.266Z,50.92
2022-08-19T18:58:11.981Z,50.91
2022-08-19T19:01:15.030Z,51.01
2022-08-19T19:04:17.874Z,50.99
2022-08-19T19:07:20.057Z,51.27
2022-08-19T19:10:25.934Z,51.13
2022-08-19T19:13:29.642Z,51.30
2022-08-19T19:16:32.188Z,51.61
2022-08-19T19:19:34.819Z,51.78
2022-08-19T19:22:36.451Z,51.88
2022-08-19T19:25:49.755Z,52.12
2022-08-19T19:28:52.573Z,52.80
2022-08-19T19:31:56.067Z,52.82
2022-08-19T19:34:59.756Z,53.22
2022-08-19T19:38:01.858Z,53.47
2022-08-19T19:41:05.301Z,53.41
2022-08-19T19:44:30.974Z,53.67
2022-08-19T19:47:31.175Z,53.11
2022-08-19T19:50:33.974Z,53.29
2022-08-19T19:53:35.612Z,52.98
2022-08-19T19:56:39.217Z,52.87
2022-08-19T19:59:44.885Z,53.06
2022-08-19T20:02:56.000Z,53.28
2022-08-19T20:06:00.237Z,53.54
2022-08-19T20:09:08.292Z,53.43
2022-08-19T20:12:11.554Z,53.47
2022-08-19T20:15:14.896Z,53.73
2022-08-19T20:18:16.514Z,53.77
2022-08-19T20:21:18.325Z,53.98
2022-08-19T20:24:22.645Z,54.20
2022-08-19T20:27:25.904Z,54.30
2022-08-19T20:30:32.604Z,54.66
2022-08-19T20:33:35.178Z,54.72
2022-08-19T20:36:36.877Z,55.04
2022-08-19T20:39:38.726Z,55.04
2022-08-19T20:42:44.117Z,55.19
2022-08-19T20:45:47.144Z,55.53
2022-08-19T20:48:48.861Z,55.55
2022-08-19T20:51:51.218Z,55.86
2022-08-19T20:54:53.103Z,56.04
2022-08-19T20:57:57.053Z,56.03
2022-08-19T21:01:00.529Z,56.17
2022-08-19T21:04:02.871Z,56.23
2022-08-19T21:07:04.930Z,56.34
2022-08-19T21:10:07.266Z,56.67
2022-08-19T21:13:10.889Z,56.72
2022-08-19T21:16:12.559Z,57.10
2022-08-19T21:19:14.281Z,57.42
2022-08-19T21:22:16.095Z,57.44
2022-08-19T21:25:18.411Z,57.63
2022-08-19T21:28:29.914Z,57.77
2022-08-19T21:31:37.913Z,57.82
2022-08-19T21:34:40.227Z,57.86
2022-08-19T21:37:44.302Z,58.33
2022-08-19T21:40:45.811Z,58.59
2022-08-19T21:43:48.795Z,58.70
2022-08-19T21:46:51.497Z,58.84
2022-08-19T21:49:53.239Z,59.04
2022-08-19T21:52:54.957Z,59.15
2022-08-19T21:55:59.487Z,59.21
2022-08-19T21:59:02.849Z,59.60
2022-08-19T22:02:19.016Z,59.87
2022-08-19T22:05:23.386Z,59.77
2022-08-19T22:08:25.619Z,59.81
2022-08-19T22:11:27.554Z,59.98
2022-08-19T22:14:33.963Z,60.28
2022-08-19T22:17:36.727Z,60.21
2022-08-19T22:20:40.938Z,60.37
2022-08-19T22:23:44.742Z,60.45
2022-08-19T22:26:46.830Z,60.66
2022-08-19T22:29:52.321Z,60.62
2022-08-19T22:32:58.950Z,60.79
2022-08-19T22:36:01.089Z,60.99
2022-08-19T22:39:05.551Z,61.26
2022-08-19T22:42:07.527Z,61.38
2022-08-19T22:45:12.770Z,61.57
2022-08-19T22:48:15.642Z,61.69
2022-08-19T22:51:35.860Z,61.87
2022-08-19T22:54:37.435Z,62.29
2022-08-19T22:57:39.230Z,62.38
2022-08-19T23:00:45.309Z,62.55
2022-08-19T23:03:50.110Z,62.69
2022-08-19T23:06:55.486Z,63.03
2022-08-19T23:10:03.476Z,63.30
2022-08-19T23:13:05.488Z,63.49
2022-08-19T23:16:08.836Z,63.44
2022-08-19T23:19:13.216Z,63.77
2022-08-19T23:22:15.904Z,64.00
2022-08-19T23:25:19.216Z,63.95
2022-08-19T23:28:40.690Z,64.22
2022-08-19T23:31:43.981Z,64.51
2022-08-19T23:34:48.787Z,64.55
2022-08-19T23:37:53.624Z,64.72
2022-08-19T23:40:57.012Z,64.85
2022-08-19T23:44:00.507Z,65.03
2022-08-19T23:47:06.315Z,65.23
2022-08-19T23:50:09.492Z,65.50
2022-08-19T23:53:13.339Z,65.78
2022-08-19T23:56:15.639Z,66.44
2022-08-19T23:59:21.239Z,66.67
